createdAt,value
2019-04-06T00:00:52.299Z,9.59
2019-04-06T00:03:23.674Z,9.49
2019-04-06T00:05:54.712Z,9.47
2019-04-06T00:08:26.325Z,9.30
2019-04-06T00:10:57.380Z,9.28
2019-04-06T00:13:28.466Z,9.24
2019-04-06T00:15:59.809Z,9.14
2019-04-06T00:18:31.054Z,9.14
2019-04-06T00:21:02.419Z,9.18
2019-04-06T00:23:34.490Z,9.33
2019-04-06T00:26:05.778Z,9.18
2019-04-06T00:28:36.978Z,9.23
2019-04-06T00:31:19.822Z,9.34
2019-04-06T00:33:50.892Z,9.21
2019-04-06T00:36:21.927Z,9.07
2019-04-06T00:38:53.017Z,8.88
2019-04-06T00:41:24.169Z,8.69
2019-04-06T00:43:56.290Z,8.73
2019-04-06T00:46:27.485Z,8.81
2019-04-06T00:48:58.559Z,8.79
2019-04-06T00:51:30.287Z,8.76
2019-04-06T00:54:01.476Z,8.68
2019-04-06T00:56:32.668Z,8.64
2019-04-06T00:59:03.799Z,8.64
2019-04-06T01:01:34.885Z,8.65
2019-04-06T01:04:06.105Z,8.73
2019-04-06T01:06:37.253Z,8.67
2019-04-06T01:09:10.899Z,8.54
2019-04-06T01:11:43.140Z,8.49
2019-04-06T01:14:14.206Z,8.40
2019-04-06T01:16:45.212Z,8.55
2019-04-06T01:19:16.204Z,8.45
2019-04-06T01:21:47.186Z,8.46
2019-04-06T01:24:18.504Z,8.28
2019-04-06T01:26:49.859Z,8.34
2019-04-06T01:29:20.978Z,8.31
2019-04-06T01:31:52.046Z,8.18
2019-04-06T01:34:23.391Z,8.24
2019-04-06T01:36:54.590Z,8.12
2019-04-06T01:39:26.446Z,8.20
2019-04-06T01:41:57.470Z,8.15
2019-04-06T01:44:28.501Z,7.95
2019-04-06T01:46:59.649Z,7.98
2019-04-06T01:49:30.704Z,8.04
2019-04-06T01:52:02.891Z,7.89
2019-04-06T01:54:34.088Z,8.12
2019-04-06T01:57:05.066Z,7.88
2019-04-06T01:59:36.707Z,7.92
2019-04-06T02:02:16.029Z,7.92
2019-04-06T02:04:47.104Z,7.88
2019-04-06T02:07:18.147Z,7.85
2019-04-06T02:09:49.174Z,7.80
2019-04-06T02:12:20.220Z,7.86
2019-04-06T02:14:51.436Z,7.92
2019-04-06T02:17:22.560Z,7.80
2019-04-06T02:19:54.631Z,7.77
2019-04-06T02:22:26.642Z,7.66
2019-04-06T02:24:57.760Z,7.73
2019-04-06T02:27:28.773Z,7.74
2019-04-06T02:30:23.139Z,7.69
2019-04-06T02:33:31.415Z,7.61
2019-04-06T02:36:12.772Z,7.59
2019-04-06T02:39:11.763Z,7.56
2019-04-06T02:41:51.187Z,7.53
2019-04-06T02:44:22.433Z,7.66
2019-04-06T02:46:54.161Z,7.74
2019-04-06T02:49:26.781Z,7.67
2019-04-06T02:51:57.996Z,7.77
2019-04-06T02:54:29.078Z,7.87
2019-04-06T02:57:00.214Z,7.66
2019-04-06T02:59:31.350Z,7.71
2019-04-06T03:02:02.672Z,7.84
2019-04-06T03:04:34.016Z,7.89
2019-04-06T03:07:05.464Z,7.73
2019-04-06T03:09:36.614Z,7.68
2019-04-06T03:12:07.737Z,7.69
2019-04-06T03:14:38.833Z,7.80
2019-04-06T03:17:09.837Z,7.67
2019-04-06T03:19:41.097Z,7.74
2019-04-06T03:22:12.453Z,7.67
2019-04-06T03:24:43.740Z,7.73
2019-04-06T03:27:14.747Z,7.69
2019-04-06T03:29:57.263Z,7.71
2019-04-06T03:32:19.102Z,7.48
2019-04-06T03:34:50.123Z,7.51
2019-04-06T03:37:22.326Z,7.64
2019-04-06T03:39:54.558Z,7.73
2019-04-06T03:42:26.742Z,7.73
2019-04-06T03:44:58.095Z,7.68
2019-04-06T03:47:29.590Z,7.53
2019-04-06T03:50:00.567Z,7.55
2019-04-06T03:52:31.672Z,7.51
2019-04-06T03:55:02.822Z,7.45
2019-04-06T03:57:33.819Z,7.48
2019-04-06T04:00:06.559Z,7.49
2019-04-06T04:02:37.901Z,7.42
2019-04-06T04:05:09.524Z,7.41
2019-04-06T04:07:40.631Z,7.39
2019-04-06T04:10:28.768Z,7.28
2019-04-06T04:13:00.173Z,7.45
2019-04-06T04:15:31.345Z,7.24
2019-04-06T04:18:02.718Z,7.14
2019-04-06T04:20:33.810Z,7.26
2019-04-06T04:23:05.008Z,7.33
2019-04-06T04:25:36.038Z,7.36
2019-04-06T04:28:08.066Z,7.25
2019-04-06T04:30:39.065Z,7.35
2019-04-06T04:33:10.074Z,7.39
2019-04-06T04:35:41.044Z,7.28
2019-04-06T04:38:12.008Z,7.26
2019-04-06T04:40:43.348Z,7.32
2019-04-06T04:43:14.440Z,7.22
2019-04-06T04:45:45.481Z,7.23
2019-04-06T04:48:16.740Z,7.29
2019-04-06T04:50:47.998Z,7.22
2019-04-06T04:53:19.303Z,7.20
2019-04-06T04:55:50.269Z,7.13
2019-04-06T04:58:21.314Z,7.08
2019-04-06T05:00:52.327Z,6.88
2019-04-06T05:03:24.558Z,6.95
2019-04-06T05:05:55.567Z,6.86
2019-04-06T05:08:27.208Z,6.88
2019-04-06T05:10:58.554Z,7.04
2019-04-06T05:13:29.839Z,7.00
2019-04-06T05:16:18.158Z,7.06
2019-04-06T05:18:49.510Z,7.00
2019-04-06T05:21:20.686Z,7.03
2019-04-06T05:23:51.854Z,6.99
2019-04-06T05:26:22.823Z,6.90
2019-04-06T05:28:53.873Z,6.98
2019-04-06T05:31:25.010Z,7.08
2019-04-06T05:33:57.130Z,7.05
2019-04-06T05:36:28.146Z,7.12
2019-04-06T05:38:59.167Z,7.12
2019-04-06T05:41:30.281Z,7.17
2019-04-06T05:44:02.978Z,7.24
2019-04-06T05:46:34.199Z,7.25
2019-04-06T05:49:05.388Z,7.26
2019-04-06T05:51:36.600Z,7.23
2019-04-06T05:54:08.044Z,7.26
2019-04-06T05:56:39.420Z,7.30
2019-04-06T05:59:10.934Z,7.35
2019-04-06T06:01:41.995Z,7.36
2019-04-06T06:04:13.166Z,7.39
2019-04-06T06:06:44.219Z,7.48
2019-04-06T06:09:15.193Z,7.54
2019-04-06T06:11:46.166Z,7.60
2019-04-06T06:14:17.151Z,7.70
2019-04-06T06:16:48.143Z,7.71
2019-04-06T06:19:19.171Z,7.71
2019-04-06T06:21:50.230Z,7.86
2019-04-06T06:24:21.553Z,7.99
2019-04-06T06:26:52.967Z,8.02
2019-04-06T06:29:23.951Z,7.94
2019-04-06T06:31:54.987Z,7.91
2019-04-06T06:34:27.509Z,7.97
2019-04-06T06:39:29.704Z,8.06
2019-04-06T06:42:00.752Z,8.15
2019-04-06T06:44:31.871Z,8.21
2019-04-06T06:47:02.947Z,8.21
2019-04-06T06:49:33.966Z,8.21
2019-04-06T06:52:05.097Z,8.30
2019-04-06T06:54:36.132Z,8.37
2019-04-06T06:57:07.162Z,8.52
2019-04-06T06:59:38.135Z,8.60
2019-04-06T07:02:09.207Z,8.59
2019-04-06T07:04:40.326Z,8.74
2019-04-06T07:07:11.913Z,8.86
2019-04-06T07:09:43.765Z,8.95
2019-04-06T07:12:16.237Z,9.13
2019-04-06T07:14:47.386Z,9.19
2019-04-06T07:17:18.357Z,9.35
2019-04-06T07:19:49.473Z,9.48
2019-04-06T07:22:20.482Z,9.54
2019-04-06T07:24:51.455Z,9.52
2019-04-06T07:27:22.511Z,9.62
2019-04-06T07:29:53.577Z,9.87
2019-04-06T07:32:24.533Z,9.88
2019-04-06T07:34:55.549Z,9.92
2019-04-06T07:37:27.539Z,10.07
2019-04-06T07:39:58.639Z,10.02
2019-04-06T07:42:29.632Z,10.16
2019-04-06T07:45:00.962Z,10.21
2019-04-06T07:47:32.231Z,10.44
2019-04-06T07:50:03.534Z,10.69
2019-04-06T07:52:34.581Z,10.94
2019-04-06T07:55:05.931Z,11.01
2019-04-06T07:57:36.958Z,11.14
2019-04-06T08:00:08.201Z,11.31
2019-04-06T08:02:39.202Z,11.53
2019-04-06T08:05:10.378Z,11.67
2019-04-06T08:07:41.411Z,11.71
2019-04-06T08:10:13.085Z,12.04
2019-04-06T08:12:44.079Z,12.20
2019-04-06T08:15:15.863Z,12.41
2019-04-06T08:17:48.297Z,12.60
2019-04-06T08:20:19.528Z,12.81
2019-04-06T08:22:50.821Z,13.08
2019-04-06T08:25:22.351Z,13.22
2019-04-06T08:27:53.460Z,13.45
2019-04-06T08:30:24.538Z,13.49
2019-04-06T08:32:55.567Z,13.58
2019-04-06T08:35:27.883Z,13.73
2019-04-06T08:37:58.954Z,13.89
2019-04-06T08:40:30.109Z,14.09
2019-04-06T08:43:01.333Z,14.24
2019-04-06T08:45:32.992Z,14.22
2019-04-06T08:48:04.077Z,14.30
2019-04-06T08:50:35.074Z,14.37
2019-04-06T08:53:06.091Z,14.42
2019-04-06T08:55:37.430Z,14.50
2019-04-06T08:58:08.501Z,14.50
2019-04-06T09:00:39.545Z,14.42
2019-04-06T09:03:10.572Z,14.42
2019-04-06T09:05:41.697Z,14.40
2019-04-06T09:08:12.766Z,14.44
2019-04-06T09:10:44.023Z,14.55
2019-04-06T09:13:15.051Z,14.48
2019-04-06T09:15:46.109Z,14.60
2019-04-06T09:18:17.133Z,14.77
2019-04-06T09:20:48.333Z,14.63
2019-04-06T09:23:19.924Z,14.71
2019-04-06T09:25:51.680Z,14.81
2019-04-06T09:28:22.776Z,14.77
2019-04-06T09:30:54.189Z,14.94
2019-04-06T09:33:25.228Z,15.06
2019-04-06T09:35:56.250Z,15.10
2019-04-06T09:38:27.833Z,15.02
2019-04-06T09:40:58.930Z,15.02
2019-04-06T09:43:30.180Z,15.12
2019-04-06T09:46:19.482Z,15.24
2019-04-06T09:49:09.643Z,15.19
2019-04-06T09:52:06.084Z,15.10
2019-04-06T09:54:54.259Z,15.17
2019-04-06T09:57:44.899Z,15.24
2019-04-06T10:00:38.073Z,15.21
2019-04-06T10:03:23.111Z,15.19
2019-04-06T10:06:21.108Z,15.01
2019-04-06T10:09:11.039Z,15.06
2019-04-06T10:12:06.992Z,15.14
2019-04-06T10:14:55.569Z,15.20
2019-04-06T10:17:36.612Z,15.25
2019-04-06T10:20:28.558Z,15.20
2019-04-06T10:23:19.135Z,15.14
2019-04-06T10:26:09.484Z,15.13
2019-04-06T10:28:52.374Z,15.09
2019-04-06T10:31:41.137Z,15.09
2019-04-06T10:34:27.731Z,15.14
2019-04-06T10:37:20.986Z,15.18
2019-04-06T10:40:29.748Z,15.38
2019-04-06T10:43:28.823Z,15.50
2019-04-06T10:46:13.257Z,15.53
2019-04-06T10:49:18.623Z,15.62
2019-04-06T10:52:06.682Z,15.76
2019-04-06T10:54:56.824Z,15.85
2019-04-06T10:57:56.197Z,15.95
2019-04-06T11:00:32.898Z,15.99
2019-04-06T11:03:25.851Z,15.83
2019-04-06T11:06:04.664Z,15.65
2019-04-06T11:08:54.569Z,15.54
2019-04-06T11:11:44.568Z,15.50
2019-04-06T11:14:37.645Z,15.41
2019-04-06T11:17:27.237Z,15.30
2019-04-06T11:20:17.412Z,15.26
2019-04-06T11:23:01.102Z,15.21
2019-04-06T11:25:51.337Z,15.15
2019-04-06T11:28:38.620Z,15.12
2019-04-06T11:31:20.829Z,15.07
2019-04-06T11:34:05.552Z,14.97
2019-04-06T11:36:58.812Z,14.97
2019-04-06T11:39:48.291Z,15.14
2019-04-06T11:42:44.354Z,15.33
2019-04-06T11:45:27.169Z,15.36
2019-04-06T11:48:14.170Z,15.43
2019-04-06T11:51:07.470Z,15.51
2019-04-06T11:53:55.900Z,15.44
2019-04-06T11:56:40.396Z,15.40
2019-04-06T11:59:19.945Z,15.26
2019-04-06T12:02:18.745Z,15.14
2019-04-06T12:05:07.309Z,15.19
2019-04-06T12:07:56.939Z,15.21
2019-04-06T12:10:43.475Z,15.23
2019-04-06T12:13:42.781Z,15.26
2019-04-06T12:16:31.563Z,15.32
2019-04-06T12:19:24.319Z,15.32
2019-04-06T12:22:03.114Z,15.29
2019-04-06T12:24:56.724Z,15.28
2019-04-06T12:27:49.927Z,15.28
2019-04-06T12:30:39.331Z,15.25
2019-04-06T12:33:29.625Z,15.36
2019-04-06T12:36:19.620Z,15.39
2019-04-06T12:39:12.415Z,15.40
2019-04-06T12:42:09.574Z,15.42
2019-04-06T12:44:50.920Z,15.46
2019-04-06T12:47:37.380Z,15.48
2019-04-06T12:50:19.921Z,15.61
2019-04-06T12:53:12.755Z,15.58
2019-04-06T12:56:07.449Z,15.67
2019-04-06T12:58:56.403Z,15.65
2019-04-06T13:01:50.470Z,15.64
2019-04-06T13:04:43.460Z,15.52
2019-04-06T13:07:37.976Z,15.38
2019-04-06T13:10:37.223Z,15.43
2019-04-06T13:13:36.489Z,15.46
2019-04-06T13:16:14.472Z,15.15
2019-04-06T13:19:07.432Z,15.26
2019-04-06T13:22:05.408Z,15.33
2019-04-06T13:24:55.811Z,15.36
2019-04-06T13:27:45.362Z,15.45
2019-04-06T13:30:34.365Z,15.56
2019-04-06T13:33:12.944Z,15.53
2019-04-06T13:35:50.772Z,15.54
2019-04-06T13:38:39.900Z,15.60
2019-04-06T13:41:25.260Z,15.63
2019-04-06T13:44:10.295Z,15.66
2019-04-06T13:46:52.742Z,15.74
2019-04-06T13:49:45.899Z,15.74
2019-04-06T13:52:38.834Z,15.75
2019-04-06T13:55:21.924Z,15.79
2019-04-06T13:58:15.550Z,15.83
2019-04-06T14:01:14.787Z,15.76
2019-04-06T14:03:56.825Z,15.82
2019-04-06T14:06:35.013Z,15.87
2019-04-06T14:09:40.043Z,15.86
2019-04-06T14:12:28.805Z,15.96
2019-04-06T14:15:17.617Z,15.98
2019-04-06T14:18:04.600Z,16.00
2019-04-06T14:20:53.386Z,16.00
2019-04-06T14:23:49.886Z,16.00
2019-04-06T14:26:46.285Z,16.01
2019-04-06T14:29:27.116Z,16.00
2019-04-06T14:32:20.071Z,16.09
2019-04-06T14:35:08.910Z,16.24
2019-04-06T14:38:11.486Z,16.34
2019-04-06T14:41:08.405Z,16.32
2019-04-06T14:43:54.787Z,16.36
2019-04-06T14:46:39.455Z,16.34
2019-04-06T14:49:29.511Z,16.41
2019-04-06T14:52:13.340Z,16.27
2019-04-06T14:54:51.225Z,16.06
2019-04-06T14:57:41.232Z,16.23
2019-04-06T15:00:24.388Z,16.17
2019-04-06T15:03:13.239Z,16.15
2019-04-06T15:06:21.670Z,16.11
2019-04-06T15:09:04.286Z,16.16
2019-04-06T15:11:48.604Z,16.17
2019-04-06T15:14:39.537Z,16.15
2019-04-06T15:17:16.043Z,16.17
2019-04-06T15:20:15.080Z,16.10
2019-04-06T15:22:56.682Z,16.00
2019-04-06T15:25:42.893Z,16.01
2019-04-06T15:28:39.770Z,15.93
2019-04-06T15:31:27.121Z,16.00
2019-04-06T15:34:09.911Z,16.02
2019-04-06T15:36:53.420Z,16.03
2019-04-06T15:39:31.996Z,16.08
2019-04-06T15:42:21.953Z,16.07
2019-04-06T15:45:21.419Z,16.13
2019-04-06T15:48:08.027Z,16.14
2019-04-06T15:50:50.038Z,16.15
2019-04-06T15:53:36.402Z,16.26
2019-04-06T15:56:35.726Z,16.31
2019-04-06T15:59:21.561Z,16.35
2019-04-06T16:02:02.558Z,16.36
2019-04-06T16:05:04.032Z,16.39
2019-04-06T16:08:00.743Z,16.37
2019-04-06T16:10:44.543Z,16.39
2019-04-06T16:13:32.187Z,16.39
2019-04-06T16:16:09.273Z,16.32
2019-04-06T16:18:52.077Z,16.35
2019-04-06T16:21:31.819Z,16.34
2019-04-06T16:24:27.726Z,16.38
2019-04-06T16:27:16.712Z,16.40
2019-04-06T16:29:54.831Z,16.36
2019-04-06T16:32:34.841Z,16.39
2019-04-06T16:35:35.165Z,16.40
2019-04-06T16:38:29.688Z,16.36
2019-04-06T16:41:25.713Z,16.40
2019-04-06T16:44:10.269Z,16.43
2019-04-06T16:46:59.492Z,16.42
2019-04-06T16:49:48.761Z,16.43
2019-04-06T16:52:29.988Z,16.43
2019-04-06T16:55:10.957Z,16.38
2019-04-06T16:58:10.116Z,16.33
2019-04-06T17:00:59.650Z,16.37
2019-04-06T17:03:48.682Z,16.33
2019-04-06T17:06:38.751Z,16.33
2019-04-06T17:09:44.422Z,16.31
2019-04-06T17:12:37.692Z,16.32
2019-04-06T17:15:35.663Z,16.30
2019-04-06T17:18:18.811Z,16.32
2019-04-06T17:21:14.864Z,16.23
2019-04-06T17:23:54.820Z,16.23
2019-04-06T17:26:48.126Z,16.18
2019-04-06T17:29:43.927Z,16.15
2019-04-06T17:32:38.114Z,16.10
2019-04-06T17:35:31.203Z,16.04
2019-04-06T17:38:12.337Z,15.97
2019-04-06T17:41:20.450Z,15.92
2019-04-06T17:44:04.085Z,15.89
2019-04-06T17:46:57.275Z,15.81
2019-04-06T17:49:49.475Z,15.78
2019-04-06T17:52:28.144Z,15.68
2019-04-06T17:55:15.003Z,15.63
2019-04-06T17:58:04.060Z,15.53
2019-04-06T18:00:51.527Z,15.44
2019-04-06T18:03:44.756Z,15.38
2019-04-06T18:06:43.978Z,15.32
2019-04-06T18:09:21.770Z,15.29
2019-04-06T18:11:57.714Z,15.28
2019-04-06T18:14:30.302Z,15.23
2019-04-06T18:17:01.772Z,15.27
2019-04-06T18:19:34.721Z,15.22
2019-04-06T18:22:05.833Z,15.21
2019-04-06T18:24:38.579Z,15.18
2019-04-06T18:27:09.913Z,15.04
2019-04-06T18:29:41.490Z,15.07
2019-04-06T18:32:34.808Z,14.99
2019-04-06T18:35:09.937Z,14.92
2019-04-06T18:37:49.290Z,14.85
2019-04-06T18:40:25.885Z,14.84
2019-04-06T18:42:57.284Z,14.86
2019-04-06T18:45:31.157Z,14.79
2019-04-06T18:48:03.358Z,14.78
2019-04-06T18:50:38.331Z,14.75
2019-04-06T18:53:08.899Z,14.69
2019-04-06T18:55:40.168Z,14.67
2019-04-06T18:58:13.270Z,14.52
2019-04-06T19:00:44.581Z,14.48
2019-04-06T19:03:16.792Z,14.45
2019-04-06T19:05:50.589Z,14.37
2019-04-06T19:08:21.814Z,14.36
2019-04-06T19:10:55.314Z,14.32
2019-04-06T19:13:26.005Z,14.33
2019-04-06T19:15:57.102Z,14.17
2019-04-06T19:18:28.735Z,14.13
2019-04-06T19:20:59.757Z,14.10
2019-04-06T19:23:30.768Z,13.92
2019-04-06T19:26:02.047Z,13.89
2019-04-06T19:28:33.089Z,13.82
2019-04-06T19:31:04.618Z,13.87
2019-04-06T19:33:36.442Z,13.85
2019-04-06T19:36:08.729Z,13.75
2019-04-06T19:38:39.799Z,13.75
2019-04-06T19:41:11.046Z,13.69
2019-04-06T19:43:42.605Z,13.65
2019-04-06T19:46:14.145Z,13.57
2019-04-06T19:48:45.189Z,13.61
2019-04-06T19:51:16.349Z,13.66
2019-04-06T19:53:48.253Z,13.64
2019-04-06T19:56:19.420Z,13.59
2019-04-06T19:58:51.628Z,13.52
2019-04-06T20:01:23.015Z,13.39
2019-04-06T20:03:54.433Z,13.38
2019-04-06T20:06:25.662Z,13.50
2019-04-06T20:08:57.777Z,13.49
2019-04-06T20:11:29.112Z,13.39
2019-04-06T20:14:01.520Z,13.24
2019-04-06T20:16:33.067Z,13.34
2019-04-06T20:19:04.420Z,13.32
2019-04-06T20:21:36.153Z,13.22
2019-04-06T20:24:08.527Z,13.13
2019-04-06T20:26:40.152Z,13.08
2019-04-06T20:29:12.685Z,12.95
2019-04-06T20:31:44.710Z,12.95
2019-04-06T20:34:16.351Z,12.84
2019-04-06T20:36:47.470Z,12.87
2019-04-06T20:39:18.504Z,12.92
2019-04-06T20:41:49.533Z,12.82
2019-04-06T20:44:21.065Z,12.59
2019-04-06T20:46:52.920Z,12.57
2019-04-06T20:49:24.669Z,12.61
2019-04-06T20:51:55.811Z,12.61
2019-04-06T20:54:27.270Z,12.59
2019-04-06T20:56:59.126Z,12.61
2019-04-06T20:59:30.478Z,12.56
2019-04-06T21:02:01.747Z,12.54
2019-04-06T21:04:32.895Z,12.51
2019-04-06T21:07:04.406Z,12.47
2019-04-06T21:09:36.067Z,12.49
2019-04-06T21:12:07.833Z,12.48
2019-04-06T21:14:38.907Z,12.47
2019-04-06T21:17:10.569Z,12.41
2019-04-06T21:19:41.721Z,12.38
2019-04-06T21:22:12.779Z,12.38
2019-04-06T21:24:44.019Z,12.30
2019-04-06T21:27:15.148Z,12.27
2019-04-06T21:29:47.432Z,12.14
2019-04-06T21:32:18.711Z,12.03
2019-04-06T21:34:49.696Z,12.12
2019-04-06T21:37:21.141Z,12.14
2019-04-06T21:39:52.213Z,12.05
2019-04-06T21:42:23.234Z,11.98
2019-04-06T21:44:55.738Z,11.97
2019-04-06T21:47:27.423Z,12.05
2019-04-06T21:49:58.596Z,11.98
2019-04-06T21:52:30.044Z,12.01
2019-04-06T21:55:01.174Z,12.02
2019-04-06T21:57:32.255Z,12.02
2019-04-06T22:00:04.271Z,12.00
2019-04-06T22:02:37.299Z,11.98
2019-04-06T22:05:09.622Z,11.92
2019-04-06T22:07:48.697Z,11.93
2019-04-06T22:10:13.961Z,11.83
2019-04-06T22:12:44.899Z,11.86
2019-04-06T22:15:16.447Z,11.82
2019-04-06T22:17:47.772Z,11.78
2019-04-06T22:20:18.889Z,11.79
2019-04-06T22:22:51.359Z,11.75
2019-04-06T22:25:22.641Z,11.82
2019-04-06T22:27:54.043Z,11.75
2019-04-06T22:30:25.900Z,11.66
2019-04-06T22:32:57.296Z,11.65
2019-04-06T22:35:28.451Z,11.72
2019-04-06T22:37:59.979Z,11.63
2019-04-06T22:40:31.468Z,11.56
2019-04-06T22:43:03.050Z,11.45
2019-04-06T22:45:34.791Z,11.34
2019-04-06T22:48:05.994Z,11.33
2019-04-06T22:50:37.235Z,11.47
2019-04-06T22:53:08.731Z,11.51
2019-04-06T22:55:40.258Z,11.51
2019-04-06T22:58:11.795Z,11.52
2019-04-06T23:00:50.391Z,11.37
2019-04-06T23:03:42.299Z,11.31
2019-04-06T23:06:17.968Z,11.22
2019-04-06T23:08:49.538Z,11.20
2019-04-06T23:11:20.671Z,11.00
2019-04-06T23:13:51.835Z,11.10
2019-04-06T23:16:23.046Z,11.14
2019-04-06T23:18:54.052Z,11.15
2019-04-06T23:21:25.025Z,11.13
2019-04-06T23:23:56.027Z,11.13
2019-04-06T23:26:27.284Z,11.18
2019-04-06T23:28:58.447Z,11.12
2019-04-06T23:31:29.538Z,11.11
2019-04-06T23:34:01.130Z,10.97
2019-04-06T23:36:33.269Z,10.97
2019-04-06T23:39:06.812Z,10.98
2019-04-06T23:41:37.869Z,10.91
2019-04-06T23:44:09.045Z,10.92
2019-04-06T23:46:40.690Z,10.80
2019-04-06T23:49:12.063Z,10.82
2019-04-06T23:51:43.065Z,10.75
2019-04-06T23:54:14.617Z,10.75
2019-04-06T23:56:46.227Z,10.82
2019-04-06T23:59:17.930Z,10.85
